F/V Armandeche — FGLQ — position and weather

sailwx.info

Track history (hours):
 
Tides and Currents Weather Stations Pressure Air Temp Water Temp Dewpoint Dewpoint Depression Visibility Wind Speed Wind Dir Waves Ship Positions

F/V Armandeche

Last reported at 2017-Sep-19 17:08 UTC. Time now 2017-Sep-20 18:29 UTC.
Position N 46°30' W 001°47'.

Length 18 m.

Type: Fishing. MMSI: 228184000.

Date/timePositionNaut miles runAvg speedWind from/ knotsBaromVisibWave heightAir tempDewpointWater temp
2017-Sep-19 17:08N 46°30' W 001°47'0 0.1
2017-Sep-19 17:00N 46°30' W 001°47'0 0.0
2017-Sep-19 16:31N 46°30' W 001°47'0 0.0
2017-Sep-19 16:00N 46°30' W 001°47'0 0.0
2017-Sep-19 15:31N 46°30' W 001°47'0 0.0
2017-Sep-19 15:01N 46°30' W 001°47'0 0.2
2017-Sep-19 14:31N 46°30' W 001°47'0 0.0
2017-Sep-19 14:00N 46°30' W 001°47'0 0.4
2017-Sep-19 13:31N 46°30' W 001°47'0 0.8
2017-Sep-19 13:00N 46°30' W 001°48'5 9.1
2017-Sep-19 12:31N 46°27' W 001°53'510.3
2017-Sep-19 12:00N 46°24' W 001°59'510.3
2017-Sep-19 11:31N 46°22' W 002°06'  
2017-Sep-14 11:13N 46°18' W 002°01'210.1
2017-Sep-14 11:00N 46°20' W 001°60'3 6.9
2017-Sep-14 10:31N 46°23' W 001°58'1 1.6
2017-Sep-14 10:00N 46°23' W 001°57'1 1.8
2017-Sep-14 09:30N 46°22' W 001°57'1 1.6
2017-Sep-14 09:00N 46°21' W 001°56'1 1.9
2017-Sep-14 08:30N 46°20' W 001°56'4 7.1
2017-Sep-14 08:00N 46°24' W 001°57'1 1.5
2017-Sep-14 07:30N 46°23' W 001°57'1 1.7
2017-Sep-14 07:01N 46°22' W 001°56'1 1.6
2017-Sep-14 06:31N 46°22' W 001°56'1 2.3
2017-Sep-14 05:59N 46°20' W 001°55'0 0.4
2017-Sep-14 05:30N 46°20' W 001°55'0 0.0
2017-Sep-14 05:01N 46°20' W 001°55'0 0.0
2017-Sep-14 04:30N 46°20' W 001°55'0 0.0
2017-Sep-14 04:01N 46°20' W 001°55'0 0.0
2017-Sep-14 03:31N 46°20' W 001°55'0 0.0
2017-Sep-14 03:00N 46°20' W 001°55'0 0.0
2017-Sep-14 02:31N 46°20' W 001°55'0 0.1
2017-Sep-14 02:01N 46°20' W 001°55'0 0.1
2017-Sep-14 01:30N 46°20' W 001°55'0 0.1
2017-Sep-14 01:00N 46°20' W 001°55'0 0.0
2017-Sep-14 00:31N 46°20' W 001°55'0 0.0
2017-Sep-14 00:01N 46°20' W 001°55'0 0.0
2017-Sep-13 23:30N 46°20' W 001°55'0 0.0
2017-Sep-13 23:00N 46°20' W 001°55'0 0.0
2017-Sep-13 22:30N 46°20' W 001°55'0 0.2
2017-Sep-13 22:00N 46°20' W 001°55'0 0.0
2017-Sep-13 18:43N 46°21' W 001°55'0 0.0
2017-Sep-13 18:26N 46°21' W 001°55'0 0.0
2017-Sep-13 17:58N 46°21' W 001°55'0 0.0
2017-Sep-13 17:22N 46°21' W 001°55'0 0.0
2017-Sep-13 16:47N 46°21' W 001°55'0 0.0
2017-Sep-13 16:17N 46°21' W 001°55'0 0.0
2017-Sep-13 15:43N 46°21' W 001°55'0 0.0
2017-Sep-13 15:17N 46°21' W 001°55'0 0.0
2017-Sep-13 14:53N 46°21' W 001°55'0 0.0
2017-Sep-13 14:30N 46°21' W 001°55'0 0.0
2017-Sep-13 13:57N 46°21' W 001°55'0 0.0
2017-Sep-13 12:36N 46°21' W 001°55'0 0.0
2017-Sep-13 12:29N 46°21' W 001°55'0 0.0
2017-Sep-13 12:00N 46°21' W 001°55'0 0.0
2017-Sep-13 10:37N 46°21' W 001°55'1 5.0
2017-Sep-13 10:30N 46°20' W 001°56'3 6.6
2017-Sep-13 10:00N 46°23' W 001°58'2 4.3
2017-Sep-13 09:30N 46°22' W 001°56'2 4.8
2017-Sep-13 09:00N 46°22' W 001°52'4 9.0
2017-Sep-13 08:31N 46°26' W 001°49'4 7.3
2017-Sep-13 08:00N 46°30' W 001°48'0 0.6
2017-Sep-13 07:30N 46°30' W 001°47'0 0.0
2017-Sep-12 23:06N 46°30' W 001°47'0 0.0
2017-Sep-12 23:00N 46°30' W 001°47'4 8.2
2017-Sep-12 22:30N 46°26' W 001°46'5 9.9
2017-Sep-12 22:00N 46°21' W 001°44'5 9.8
2017-Sep-12 21:30N 46°16' W 001°42'3 1.1
2017-Sep-12 18:50N 46°14' W 001°40'0 1.4
2017-Sep-12 18:30N 46°14' W 001°40'1 0.9
2017-Sep-12 17:56N 46°15' W 001°40'1 1.4
2017-Sep-12 17:30N 46°14' W 001°39'1 1.5
2017-Sep-12 17:00N 46°13' W 001°39'1 1.7
2017-Sep-12 16:28N 46°12' W 001°38'1 0.2
2017-Sep-12 10:31N 46°13' W 001°39'110.6
2017-Sep-12 10:28N 46°14' W 001°40'2 1.2
2017-Sep-12 09:10N 46°15' W 001°40'210.5
2017-Sep-12 09:00N 46°17' W 001°42'510.2
2017-Sep-12 08:30N 46°21' W 001°45'510.3
2017-Sep-12 08:00N 46°26' W 001°46'3 7.0
2017-Sep-12 07:30N 46°30' W 001°47'0 0.0
2017-Sep-12 07:00N 46°30' W 001°47'0 0.0
2017-Sep-11 23:06N 46°30' W 001°47'0 0.0
2017-Sep-11 23:00N 46°30' W 001°47'1 1.2
2017-Sep-11 22:30N 46°29' W 001°47'5 9.5
2017-Sep-11 22:00N 46°25' W 001°46'5 9.4
2017-Sep-11 21:30N 46°20' W 001°44'5 9.1
2017-Sep-11 21:00N 46°16' W 001°41'2 3.4
2017-Sep-11 20:30N 46°15' W 001°40'1 1.2
2017-Sep-11 20:00N 46°14' W 001°39'1 0.9
2017-Sep-11 19:08N 46°14' W 001°38'1 1.0
2017-Sep-11 18:07N 46°13' W 001°37'0 1.0
2017-Sep-11 17:57N 46°13' W 001°37'1 1.6
2017-Sep-11 17:30N 46°12' W 001°37'3 0.4
2017-Sep-11 10:12N 46°14' W 001°39'2 7.4
2017-Sep-11 10:00N 46°16' W 001°41'5 9.9
2017-Sep-11 09:30N 46°20' W 001°44'510.0
2017-Sep-11 09:00N 46°25' W 001°46'5 9.6
2017-Sep-11 08:30N 46°29' W 001°48'0 0.7
2017-Sep-11 08:00N 46°30' W 001°48'0 0.9
2017-Sep-11 07:31N 46°29' W 001°48'0 0.9
2017-Sep-11 07:00N 46°30' W 001°47'0 0.0
2017-Sep-11 06:30N 46°30' W 001°47'  
Track history (hours):
 
Tides and Currents Weather Stations Pressure Air Temp Water Temp Dewpoint Dewpoint Depression Visibility Wind Speed Wind Dir Waves Ship Positions

F/V Armandeche

Last reported at 2017-Sep-19 17:08 UTC. Time now 2017-Sep-20 18:29 UTC.
Position N 46°30' W 001°47'.

Length 18 m.

Type: Fishing. MMSI: 228184000.

Date/timePositionNaut miles runAvg speedWind from/ knotsBaromVisibWave heightAir tempDewpointWater temp
2017-Sep-19 17:08N 46°30' W 001°47'0 0.1
2017-Sep-19 17:00N 46°30' W 001°47'0 0.0
2017-Sep-19 16:31N 46°30' W 001°47'0 0.0
2017-Sep-19 16:00N 46°30' W 001°47'0 0.0
2017-Sep-19 15:31N 46°30' W 001°47'0 0.0
2017-Sep-19 15:01N 46°30' W 001°47'0 0.2
2017-Sep-19 14:31N 46°30' W 001°47'0 0.0
2017-Sep-19 14:00N 46°30' W 001°47'0 0.4
2017-Sep-19 13:31N 46°30' W 001°47'0 0.8
2017-Sep-19 13:00N 46°30' W 001°48'5 9.1
2017-Sep-19 12:31N 46°27' W 001°53'510.3
2017-Sep-19 12:00N 46°24' W 001°59'510.3
2017-Sep-19 11:31N 46°22' W 002°06'  
2017-Sep-14 11:13N 46°18' W 002°01'210.1
2017-Sep-14 11:00N 46°20' W 001°60'3 6.9
2017-Sep-14 10:31N 46°23' W 001°58'1 1.6
2017-Sep-14 10:00N 46°23' W 001°57'1 1.8
2017-Sep-14 09:30N 46°22' W 001°57'1 1.6
2017-Sep-14 09:00N 46°21' W 001°56'1 1.9
2017-Sep-14 08:30N 46°20' W 001°56'4 7.1
2017-Sep-14 08:00N 46°24' W 001°57'1 1.5
2017-Sep-14 07:30N 46°23' W 001°57'1 1.7
2017-Sep-14 07:01N 46°22' W 001°56'1 1.6
2017-Sep-14 06:31N 46°22' W 001°56'1 2.3
2017-Sep-14 05:59N 46°20' W 001°55'0 0.4
2017-Sep-14 05:30N 46°20' W 001°55'0 0.0
2017-Sep-14 05:01N 46°20' W 001°55'0 0.0
2017-Sep-14 04:30N 46°20' W 001°55'0 0.0
2017-Sep-14 04:01N 46°20' W 001°55'0 0.0
2017-Sep-14 03:31N 46°20' W 001°55'0 0.0
2017-Sep-14 03:00N 46°20' W 001°55'0 0.0
2017-Sep-14 02:31N 46°20' W 001°55'0 0.1
2017-Sep-14 02:01N 46°20' W 001°55'0 0.1
2017-Sep-14 01:30N 46°20' W 001°55'0 0.1
2017-Sep-14 01:00N 46°20' W 001°55'0 0.0
2017-Sep-14 00:31N 46°20' W 001°55'0 0.0
2017-Sep-14 00:01N 46°20' W 001°55'0 0.0
2017-Sep-13 23:30N 46°20' W 001°55'0 0.0
2017-Sep-13 23:00N 46°20' W 001°55'0 0.0
2017-Sep-13 22:30N 46°20' W 001°55'0 0.2
2017-Sep-13 22:00N 46°20' W 001°55'0 0.0
2017-Sep-13 18:43N 46°21' W 001°55'0 0.0
2017-Sep-13 18:26N 46°21' W 001°55'0 0.0
2017-Sep-13 17:58N 46°21' W 001°55'0 0.0
2017-Sep-13 17:22N 46°21' W 001°55'0 0.0
2017-Sep-13 16:47N 46°21' W 001°55'0 0.0
2017-Sep-13 16:17N 46°21' W 001°55'0 0.0
2017-Sep-13 15:43N 46°21' W 001°55'0 0.0
2017-Sep-13 15:17N 46°21' W 001°55'0 0.0
2017-Sep-13 14:53N 46°21' W 001°55'0 0.0
2017-Sep-13 14:30N 46°21' W 001°55'0 0.0
2017-Sep-13 13:57N 46°21' W 001°55'0 0.0
2017-Sep-13 12:36N 46°21' W 001°55'0 0.0
2017-Sep-13 12:29N 46°21' W 001°55'0 0.0
2017-Sep-13 12:00N 46°21' W 001°55'0 0.0
2017-Sep-13 10:37N 46°21' W 001°55'1 5.0
2017-Sep-13 10:30N 46°20' W 001°56'3 6.6
2017-Sep-13 10:00N 46°23' W 001°58'2 4.3
2017-Sep-13 09:30N 46°22' W 001°56'2 4.8
2017-Sep-13 09:00N 46°22' W 001°52'4 9.0
2017-Sep-13 08:31N 46°26' W 001°49'4 7.3
2017-Sep-13 08:00N 46°30' W 001°48'0 0.6
2017-Sep-13 07:30N 46°30' W 001°47'0 0.0
2017-Sep-12 23:06N 46°30' W 001°47'0 0.0
2017-Sep-12 23:00N 46°30' W 001°47'4 8.2
2017-Sep-12 22:30N 46°26' W 001°46'5 9.9
2017-Sep-12 22:00N 46°21' W 001°44'5 9.8
2017-Sep-12 21:30N 46°16' W 001°42'3 1.1
2017-Sep-12 18:50N 46°14' W 001°40'0 1.4
2017-Sep-12 18:30N 46°14' W 001°40'1 0.9
2017-Sep-12 17:56N 46°15' W 001°40'1 1.4
2017-Sep-12 17:30N 46°14' W 001°39'1 1.5
2017-Sep-12 17:00N 46°13' W 001°39'1 1.7
2017-Sep-12 16:28N 46°12' W 001°38'1 0.2
2017-Sep-12 10:31N 46°13' W 001°39'110.6
2017-Sep-12 10:28N 46°14' W 001°40'2 1.2
2017-Sep-12 09:10N 46°15' W 001°40'210.5
2017-Sep-12 09:00N 46°17' W 001°42'510.2
2017-Sep-12 08:30N 46°21' W 001°45'510.3
2017-Sep-12 08:00N 46°26' W 001°46'3 7.0
2017-Sep-12 07:30N 46°30' W 001°47'0 0.0
2017-Sep-12 07:00N 46°30' W 001°47'0 0.0
2017-Sep-11 23:06N 46°30' W 001°47'0 0.0
2017-Sep-11 23:00N 46°30' W 001°47'1 1.2
2017-Sep-11 22:30N 46°29' W 001°47'5 9.5
2017-Sep-11 22:00N 46°25' W 001°46'5 9.4
2017-Sep-11 21:30N 46°20' W 001°44'5 9.1
2017-Sep-11 21:00N 46°16' W 001°41'2 3.4
2017-Sep-11 20:30N 46°15' W 001°40'1 1.2
2017-Sep-11 20:00N 46°14' W 001°39'1 0.9
2017-Sep-11 19:08N 46°14' W 001°38'1 1.0
2017-Sep-11 18:07N 46°13' W 001°37'0 1.0
2017-Sep-11 17:57N 46°13' W 001°37'1 1.6
2017-Sep-11 17:30N 46°12' W 001°37'3 0.4
2017-Sep-11 10:12N 46°14' W 001°39'2 7.4
2017-Sep-11 10:00N 46°16' W 001°41'5 9.9
2017-Sep-11 09:30N 46°20' W 001°44'510.0
2017-Sep-11 09:00N 46°25' W 001°46'5 9.6
2017-Sep-11 08:30N 46°29' W 001°48'0 0.7
2017-Sep-11 08:00N 46°30' W 001°48'0 0.9
2017-Sep-11 07:31N 46°29' W 001°48'0 0.9
2017-Sep-11 07:00N 46°30' W 001°47'0 0.0
2017-Sep-11 06:30N 46°30' W 001°47'  

Dump ship's entire track history